sensor_id;sensor_type;location;lat;lon;timestamp;P1;P2;P0
80643;PMS5003;70010;60.224;24.712;2024-02-26T00:01:06;48;32;
80643;PMS5003;70010;60.224;24.712;2024-02-26T00:03:31;63;34;
80643;PMS5003;70010;60.224;24.712;2024-02-26T00:05:56;41;37;
80643;PMS5003;70010;60.224;24.712;2024-02-26T00:08:21;43;30;
80643;PMS5003;70010;60.224;24.712;2024-02-26T00:10:47;39;37;
80643;PMS5003;70010;60.224;24.712;2024-02-26T00:13:12;55;36;
80643;PMS5003;70010;60.224;24.712;2024-02-26T00:15:38;47;36;
80643;PMS5003;70010;60.224;24.712;2024-02-26T00:18:03;49;38;
80643;PMS5003;70010;60.224;24.712;2024-02-26T00:20:29;45;34;
80643;PMS5003;70010;60.224;24.712;2024-02-26T00:22:54;44;31;
80643;PMS5003;70010;60.224;24.712;2024-02-26T00:25:20;34;29;
80643;PMS5003;70010;60.224;24.712;2024-02-26T00:27:46;44;32;
80643;PMS5003;70010;60.224;24.712;2024-02-26T00:30:11;59;38;
80643;PMS5003;70010;60.224;24.712;2024-02-26T00:32:37;39;28;
80643;PMS5003;70010;60.224;24.712;2024-02-26T00:35:03;41;33;
80643;PMS5003;70010;60.224;24.712;2024-02-26T00:37:28;48;34;
80643;PMS5003;70010;60.224;24.712;2024-02-26T00:39:54;39;31;
80643;PMS5003;70010;60.224;24.712;2024-02-26T00:42:19;47;32;
80643;PMS5003;70010;60.224;24.712;2024-02-26T00:44:45;37;26;
80643;PMS5003;70010;60.224;24.712;2024-02-26T00:47:11;41;36;
80643;PMS5003;70010;60.224;24.712;2024-02-26T00:49:37;39;29;
80643;PMS5003;70010;60.224;24.712;2024-02-26T00:52:02;47;29;
80643;PMS5003;70010;60.224;24.712;2024-02-26T00:54:27;43;30;
80643;PMS5003;70010;60.224;24.712;2024-02-26T00:56:53;37;33;
80643;PMS5003;70010;60.224;24.712;2024-02-26T00:59:19;48;34;
80643;PMS5003;70010;60.224;24.712;2024-02-26T01:01:44;43;34;
80643;PMS5003;70010;60.224;24.712;2024-02-26T01:04:10;46;30;
80643;PMS5003;70010;60.224;24.712;2024-02-26T01:06:35;42;34;
80643;PMS5003;70010;60.224;24.712;2024-02-26T01:09:00;44;35;
80643;PMS5003;70010;60.224;24.712;2024-02-26T01:11:26;40;30;
80643;PMS5003;70010;60.224;24.712;2024-02-26T01:13:52;37;32;
80643;PMS5003;70010;60.224;24.712;2024-02-26T01:16:18;31;30;
80643;PMS5003;70010;60.224;24.712;2024-02-26T01:18:44;49;32;
80643;PMS5003;70010;60.224;24.712;2024-02-26T01:21:09;39;30;
80643;PMS5003;70010;60.224;24.712;2024-02-26T01:23:34;43;33;
80643;PMS5003;70010;60.224;24.712;2024-02-26T01:26:00;36;28;
80643;PMS5003;70010;60.224;24.712;2024-02-26T01:28:26;43;31;
80643;PMS5003;70010;60.224;24.712;2024-02-26T01:30:51;48;32;
80643;PMS5003;70010;60.224;24.712;2024-02-26T01:33:16;42;27;
80643;PMS5003;70010;60.224;24.712;2024-02-26T01:35:42;34;27;
80643;PMS5003;70010;60.224;24.712;2024-02-26T01:38:07;43;26;
80643;PMS5003;70010;60.224;24.712;2024-02-26T01:40:33;31;29;
80643;PMS5003;70010;60.224;24.712;2024-02-26T01:42:59;42;31;
80643;PMS5003;70010;60.224;24.712;2024-02-26T01:45:24;41;30;
80643;PMS5003;70010;60.224;24.712;2024-02-26T01:47:49;50;35;
80643;PMS5003;70010;60.224;24.712;2024-02-26T01:50:14;45;31;
80643;PMS5003;70010;60.224;24.712;2024-02-26T01:52:40;35;29;
80643;PMS5003;70010;60.224;24.712;2024-02-26T01:55:06;32;28;
80643;PMS5003;70010;60.224;24.712;2024-02-26T01:57:31;39;30;
80643;PMS5003;70010;60.224;24.712;2024-02-26T01:59:56;51;31;
80643;PMS5003;70010;60.224;24.712;2024-02-26T02:02:22;28;26;
80643;PMS5003;70010;60.224;24.712;2024-02-26T02:04:47;41;30;
80643;PMS5003;70010;60.224;24.712;2024-02-26T02:07:12;34;29;
80643;PMS5003;70010;60.224;24.712;2024-02-26T02:09:38;45;33;
80643;PMS5003;70010;60.224;24.712;2024-02-26T02:12:03;34;29;
80643;PMS5003;70010;60.224;24.712;2024-02-26T02:14:28;38;31;
80643;PMS5003;70010;60.224;24.712;2024-02-26T02:16:54;45;30;
80643;PMS5003;70010;60.224;24.712;2024-02-26T02:19:19;29;25;
80643;PMS5003;70010;60.224;24.712;2024-02-26T02:21:45;51;35;
80643;PMS5003;70010;60.224;24.712;2024-02-26T02:24:10;47;31;
80643;PMS5003;70010;60.224;24.712;2024-02-26T02:26:36;36;24;
80643;PMS5003;70010;60.224;24.712;2024-02-26T02:29:02;42;29;
80643;PMS5003;70010;60.224;24.712;2024-02-26T02:31:27;37;28;
80643;PMS5003;70010;60.224;24.712;2024-02-26T02:33:52;51;29;
80643;PMS5003;70010;60.224;24.712;2024-02-26T02:36:18;43;35;
80643;PMS5003;70010;60.224;24.712;2024-02-26T02:38:48;36;28;
80643;PMS5003;70010;60.224;24.712;2024-02-26T02:41:08;36;29;
80643;PMS5003;70010;60.224;24.712;2024-02-26T02:43:34;43;31;
80643;PMS5003;70010;60.224;24.712;2024-02-26T02:46:00;44;28;
80643;PMS5003;70010;60.224;24.712;2024-02-26T02:48:25;39;30;
80643;PMS5003;70010;60.224;24.712;2024-02-26T02:50:50;36;29;
80643;PMS5003;70010;60.224;24.712;2024-02-26T02:53:16;31;27;
80643;PMS5003;70010;60.224;24.712;2024-02-26T02:55:41;40;28;
80643;PMS5003;70010;60.224;24.712;2024-02-26T02:58:06;33;27;
80643;PMS5003;70010;60.224;24.712;2024-02-26T03:00:32;42;29;
80643;PMS5003;70010;60.224;24.712;2024-02-26T03:02:58;38;28;
80643;PMS5003;70010;60.224;24.712;2024-02-26T03:05:23;31;28;
80643;PMS5003;70010;60.224;24.712;2024-02-26T03:07:48;55;34;
80643;PMS5003;70010;60.224;24.712;2024-02-26T03:10:13;42;32;
80643;PMS5003;70010;60.224;24.712;2024-02-26T03:12:39;35;28;
80643;PMS5003;70010;60.224;24.712;2024-02-26T03:15:05;35;31;
80643;PMS5003;70010;60.224;24.712;2024-02-26T03:17:29;39;30;
80643;PMS5003;70010;60.224;24.712;2024-02-26T03:19:55;47;33;
80643;PMS5003;70010;60.224;24.712;2024-02-26T03:22:20;45;28;
80643;PMS5003;70010;60.224;24.712;2024-02-26T03:24:45;39;33;
80643;PMS5003;70010;60.224;24.712;2024-02-26T03:27:11;42;30;
80643;PMS5003;70010;60.224;24.712;2024-02-26T03:29:37;38;29;
80643;PMS5003;70010;60.224;24.712;2024-02-26T03:32:03;33;29;
80643;PMS5003;70010;60.224;24.712;2024-02-26T03:34:28;41;25;
80643;PMS5003;70010;60.224;24.712;2024-02-26T03:36:53;36;31;
80643;PMS5003;70010;60.224;24.712;2024-02-26T03:39:19;38;27;
80643;PMS5003;70010;60.224;24.712;2024-02-26T03:41:44;35;28;
80643;PMS5003;70010;60.224;24.712;2024-02-26T03:44:09;37;29;
80643;PMS5003;70010;60.224;24.712;2024-02-26T03:46:34;47;31;
80643;PMS5003;70010;60.224;24.712;2024-02-26T03:49:00;33;27;
80643;PMS5003;70010;60.224;24.712;2024-02-26T03:51:25;29;24;
80643;PMS5003;70010;60.224;24.712;2024-02-26T03:53:51;34;29;
80643;PMS5003;70010;60.224;24.712;2024-02-26T03:56:16;37;31;
80643;PMS5003;70010;60.224;24.712;2024-02-26T03:58:42;41;29;
80643;PMS5003;70010;60.224;24.712;2024-02-26T04:01:07;36;31;
80643;PMS5003;70010;60.224;24.712;2024-02-26T04:03:32;28;23;
80643;PMS5003;70010;60.224;24.712;2024-02-26T04:05:57;34;26;
80643;PMS5003;70010;60.224;24.712;2024-02-26T04:08:22;34;28;
80643;PMS5003;70010;60.224;24.712;2024-02-26T04:10:48;33;32;
80643;PMS5003;70010;60.224;24.712;2024-02-26T04:13:13;49;25;
80643;PMS5003;70010;60.224;24.712;2024-02-26T04:15:39;41;32;
80643;PMS5003;70010;60.224;24.712;2024-02-26T04:18:04;39;27;
80643;PMS5003;70010;60.224;24.712;2024-02-26T04:20:29;41;30;
80643;PMS5003;70010;60.224;24.712;2024-02-26T04:22:54;31;28;
80643;PMS5003;70010;60.224;24.712;2024-02-26T04:25:20;37;26;
80643;PMS5003;70010;60.224;24.712;2024-02-26T04:27:45;39;31;
80643;PMS5003;70010;60.224;24.712;2024-02-26T04:30:11;33;27;
80643;PMS5003;70010;60.224;24.712;2024-02-26T04:32:37;28;21;
80643;PMS5003;70010;60.224;24.712;2024-02-26T04:35:02;31;25;
80643;PMS5003;70010;60.224;24.712;2024-02-26T04:37:26;35;24;
80643;PMS5003;70010;60.224;24.712;2024-02-26T04:39:52;31;22;
80643;PMS5003;70010;60.224;24.712;2024-02-26T04:42:18;35;24;
80643;PMS5003;70010;60.224;24.712;2024-02-26T04:44:43;41;23;
80643;PMS5003;70010;60.224;24.712;2024-02-26T04:47:09;24;22;
80643;PMS5003;70010;60.224;24.712;2024-02-26T04:49:34;28;22;
80643;PMS5003;70010;60.224;24.712;2024-02-26T04:51:59;36;20;
80643;PMS5003;70010;60.224;24.712;2024-02-26T04:54:25;28;24;
80643;PMS5003;70010;60.224;24.712;2024-02-26T04:56:50;29;21;
80643;PMS5003;70010;60.224;24.712;2024-02-26T04:59:15;33;22;
80643;PMS5003;70010;60.224;24.712;2024-02-26T05:01:41;33;24;
80643;PMS5003;70010;60.224;24.712;2024-02-26T05:04:07;37;24;
80643;PMS5003;70010;60.224;24.712;2024-02-26T05:06:32;36;24;
80643;PMS5003;70010;60.224;24.712;2024-02-26T05:08:57;28;23;
80643;PMS5003;70010;60.224;24.712;2024-02-26T05:11:23;34;26;
80643;PMS5003;70010;60.224;24.712;2024-02-26T05:13:48;33;22;
80643;PMS5003;70010;60.224;24.712;2024-02-26T05:16:14;27;22;
80643;PMS5003;70010;60.224;24.712;2024-02-26T05:18:39;32;20;
80643;PMS5003;70010;60.224;24.712;2024-02-26T05:21:05;24;20;
80643;PMS5003;70010;60.224;24.712;2024-02-26T05:23:30;38;27;
80643;PMS5003;70010;60.224;24.712;2024-02-26T05:25:56;35;23;
80643;PMS5003;70010;60.224;24.712;2024-02-26T05:28:21;38;22;
80643;PMS5003;70010;60.224;24.712;2024-02-26T05:30:47;26;22;
80643;PMS5003;70010;60.224;24.712;2024-02-26T05:33:12;37;23;
80643;PMS5003;70010;60.224;24.712;2024-02-26T05:35:37;23;18;
80643;PMS5003;70010;60.224;24.712;2024-02-26T05:38:02;48;26;
80643;PMS5003;70010;60.224;24.712;2024-02-26T05:40:28;24;24;
80643;PMS5003;70010;60.224;24.712;2024-02-26T05:42:54;24;21;
80643;PMS5003;70010;60.224;24.712;2024-02-26T05:45:19;26;22;
80643;PMS5003;70010;60.224;24.712;2024-02-26T05:47:45;34;24;
80643;PMS5003;70010;60.224;24.712;2024-02-26T05:50:11;17;17;
80643;PMS5003;70010;60.224;24.712;2024-02-26T05:52:37;23;19;
80643;PMS5003;70010;60.224;24.712;2024-02-26T05:55:03;17;14;
80643;PMS5003;70010;60.224;24.712;2024-02-26T05:57:28;20;17;
80643;PMS5003;70010;60.224;24.712;2024-02-26T05:59:54;31;22;
80643;PMS5003;70010;60.224;24.712;2024-02-26T06:02:19;21;17;
80643;PMS5003;70010;60.224;24.712;2024-02-26T06:04:44;31;17;
80643;PMS5003;70010;60.224;24.712;2024-02-26T06:07:10;21;16;
80643;PMS5003;70010;60.224;24.712;2024-02-26T06:09:35;29;16;
80643;PMS5003;70010;60.224;24.712;2024-02-26T06:12:01;20;17;
80643;PMS5003;70010;60.224;24.712;2024-02-26T06:14:27;22;16;
80643;PMS5003;70010;60.224;24.712;2024-02-26T06:16:53;23;18;
80643;PMS5003;70010;60.224;24.712;2024-02-26T06:19:19;18;15;
80643;PMS5003;70010;60.224;24.712;2024-02-26T06:21:44;27;18;
80643;PMS5003;70010;60.224;24.712;2024-02-26T06:24:10;19;17;
80643;PMS5003;70010;60.224;24.712;2024-02-26T06:26:35;17;17;
80643;PMS5003;70010;60.224;24.712;2024-02-26T06:29:01;20;19;
80643;PMS5003;70010;60.224;24.712;2024-02-26T06:31:26;28;15;
80643;PMS5003;70010;60.224;24.712;2024-02-26T06:33:51;28;20;
80643;PMS5003;70010;60.224;24.712;2024-02-26T06:36:17;26;19;
80643;PMS5003;70010;60.224;24.712;2024-02-26T06:38:42;19;16;
80643;PMS5003;70010;60.224;24.712;2024-02-26T06:41:08;20;19;
80643;PMS5003;70010;60.224;24.712;2024-02-26T06:43:33;31;18;
80643;PMS5003;70010;60.224;24.712;2024-02-26T06:45:59;18;15;
80643;PMS5003;70010;60.224;24.712;2024-02-26T06:48:24;28;14;
80643;PMS5003;70010;60.224;24.712;2024-02-26T06:50:50;22;20;
80643;PMS5003;70010;60.224;24.712;2024-02-26T06:53:16;23;20;
80643;PMS5003;70010;60.224;24.712;2024-02-26T06:55:41;22;18;
80643;PMS5003;70010;60.224;24.712;2024-02-26T06:58:07;21;18;
80643;PMS5003;70010;60.224;24.712;2024-02-26T07:00:32;20;15;
80643;PMS5003;70010;60.224;24.712;2024-02-26T07:02:58;28;15;
80643;PMS5003;70010;60.224;24.712;2024-02-26T07:05:23;15;15;
80643;PMS5003;70010;60.224;24.712;2024-02-26T07:07:49;33;18;
80643;PMS5003;70010;60.224;24.712;2024-02-26T07:10:14;20;14;
80643;PMS5003;70010;60.224;24.712;2024-02-26T07:12:39;25;16;
80643;PMS5003;70010;60.224;24.712;2024-02-26T07:15:05;19;19;
80643;PMS5003;70010;60.224;24.712;2024-02-26T07:17:30;36;22;
80643;PMS5003;70010;60.224;24.712;2024-02-26T07:19:56;29;18;
80643;PMS5003;70010;60.224;24.712;2024-02-26T07:22:21;24;20;
80643;PMS5003;70010;60.224;24.712;2024-02-26T07:24:47;20;16;
80643;PMS5003;70010;60.224;24.712;2024-02-26T07:27:13;24;21;
80643;PMS5003;70010;60.224;24.712;2024-02-26T07:29:39;26;19;
80643;PMS5003;70010;60.224;24.712;2024-02-26T07:32:04;21;15;
80643;PMS5003;70010;60.224;24.712;2024-02-26T07:34:30;27;18;
80643;PMS5003;70010;60.224;24.712;2024-02-26T07:36:55;30;19;
80643;PMS5003;70010;60.224;24.712;2024-02-26T07:39:21;34;20;
80643;PMS5003;70010;60.224;24.712;2024-02-26T07:41:46;29;17;
80643;PMS5003;70010;60.224;24.712;2024-02-26T07:44:12;18;17;
80643;PMS5003;70010;60.224;24.712;2024-02-26T07:46:37;16;14;
80643;PMS5003;70010;60.224;24.712;2024-02-26T07:49:03;21;20;
80643;PMS5003;70010;60.224;24.712;2024-02-26T07:51:28;20;13;
80643;PMS5003;70010;60.224;24.712;2024-02-26T07:53:54;21;13;
80643;PMS5003;70010;60.224;24.712;2024-02-26T07:56:20;23;16;
80643;PMS5003;70010;60.224;24.712;2024-02-26T07:58:45;23;20;
80643;PMS5003;70010;60.224;24.712;2024-02-26T08:01:12;16;11;
80643;PMS5003;70010;60.224;24.712;2024-02-26T08:03:37;13;12;
80643;PMS5003;70010;60.224;24.712;2024-02-26T08:06:02;15;12;
80643;PMS5003;70010;60.224;24.712;2024-02-26T08:08:28;16;12;
80643;PMS5003;70010;60.224;24.712;2024-02-26T08:10:54;18;13;
80643;PMS5003;70010;60.224;24.712;2024-02-26T08:13:19;20;16;
80643;PMS5003;70010;60.224;24.712;2024-02-26T08:15:44;10;10;
80643;PMS5003;70010;60.224;24.712;2024-02-26T08:18:09;19;13;
80643;PMS5003;70010;60.224;24.712;2024-02-26T08:20:35;20;14;
80643;PMS5003;70010;60.224;24.712;2024-02-26T08:23:00;15;12;
80643;PMS5003;70010;60.224;24.712;2024-02-26T08:25:25;11;11;
80643;PMS5003;70010;60.224;24.712;2024-02-26T08:27:51;19;17;
80643;PMS5003;70010;60.224;24.712;2024-02-26T08:30:16;19;12;
80643;PMS5003;70010;60.224;24.712;2024-02-26T08:32:41;20;12;
80643;PMS5003;70010;60.224;24.712;2024-02-26T08:35:06;17;16;
80643;PMS5003;70010;60.224;24.712;2024-02-26T08:37:32;16;11;
80643;PMS5003;70010;60.224;24.712;2024-02-26T08:39:57;11;11;
80643;PMS5003;70010;60.224;24.712;2024-02-26T08:42:22;20;14;
80643;PMS5003;70010;60.224;24.712;2024-02-26T08:44:48;20;13;
80643;PMS5003;70010;60.224;24.712;2024-02-26T08:47:13;16;11;
80643;PMS5003;70010;60.224;24.712;2024-02-26T08:49:42;16;14;
80643;PMS5003;70010;60.224;24.712;2024-02-26T08:52:04;15;14;
80643;PMS5003;70010;60.224;24.712;2024-02-26T08:54:30;26;13;
80643;PMS5003;70010;60.224;24.712;2024-02-26T08:56:55;21;15;
80643;PMS5003;70010;60.224;24.712;2024-02-26T08:59:20;18;14;
80643;PMS5003;70010;60.224;24.712;2024-02-26T09:01:45;18;15;
80643;PMS5003;70010;60.224;24.712;2024-02-26T09:04:11;11;11;
80643;PMS5003;70010;60.224;24.712;2024-02-26T09:06:36;14;13;
80643;PMS5003;70010;60.224;24.712;2024-02-26T09:09:02;18;11;
80643;PMS5003;70010;60.224;24.712;2024-02-26T09:11:27;14;11;
80643;PMS5003;70010;60.224;24.712;2024-02-26T09:13:52;9;9;
80643;PMS5003;70010;60.224;24.712;2024-02-26T09:16:17;12;10;
80643;PMS5003;70010;60.224;24.712;2024-02-26T09:18:42;15;9;
80643;PMS5003;70010;60.224;24.712;2024-02-26T09:21:08;14;13;
80643;PMS5003;70010;60.224;24.712;2024-02-26T09:23:34;11;10;
80643;PMS5003;70010;60.224;24.712;2024-02-26T09:25:59;16;13;
80643;PMS5003;70010;60.224;24.712;2024-02-26T09:28:24;16;11;
80643;PMS5003;70010;60.224;24.712;2024-02-26T09:30:50;12;8;
80643;PMS5003;70010;60.224;24.712;2024-02-26T09:33:15;9;9;
80643;PMS5003;70010;60.224;24.712;2024-02-26T09:35:41;14;11;
80643;PMS5003;70010;60.224;24.712;2024-02-26T09:38:06;13;9;
80643;PMS5003;70010;60.224;24.712;2024-02-26T09:40:32;25;11;
80643;PMS5003;70010;60.224;24.712;2024-02-26T09:42:59;11;10;
80643;PMS5003;70010;60.224;24.712;2024-02-26T09:45:23;7;7;
80643;PMS5003;70010;60.224;24.712;2024-02-26T09:47:48;10;9;
80643;PMS5003;70010;60.224;24.712;2024-02-26T09:50:13;7;7;
80643;PMS5003;70010;60.224;24.712;2024-02-26T09:52:38;16;8;
80643;PMS5003;70010;60.224;24.712;2024-02-26T09:55:04;6;6;
80643;PMS5003;70010;60.224;24.712;2024-02-26T09:57:29;10;6;
80643;PMS5003;70010;60.224;24.712;2024-02-26T09:59:55;11;11;
80643;PMS5003;70010;60.224;24.712;2024-02-26T10:02:20;8;7;
80643;PMS5003;70010;60.224;24.712;2024-02-26T10:04:45;9;9;
80643;PMS5003;70010;60.224;24.712;2024-02-26T10:07:12;10;9;
80643;PMS5003;70010;60.224;24.712;2024-02-26T10:09:36;6;6;
80643;PMS5003;70010;60.224;24.712;2024-02-26T10:12:02;8;7;
80643;PMS5003;70010;60.224;24.712;2024-02-26T10:14:28;8;6;
80643;PMS5003;70010;60.224;24.712;2024-02-26T10:16:53;9;7;
80643;PMS5003;70010;60.224;24.712;2024-02-26T10:21:43;8;8;
80643;PMS5003;70010;60.224;24.712;2024-02-26T10:24:12;6;5;
80643;PMS5003;70010;60.224;24.712;2024-02-26T10:26:35;11;9;
80643;PMS5003;70010;60.224;24.712;2024-02-26T10:29:01;7;7;
80643;PMS5003;70010;60.224;24.712;2024-02-26T10:31:26;7;7;
80643;PMS5003;70010;60.224;24.712;2024-02-26T10:33:51;7;6;
80643;PMS5003;70010;60.224;24.712;2024-02-26T10:36:16;7;7;
80643;PMS5003;70010;60.224;24.712;2024-02-26T10:38:42;6;5;
80643;PMS5003;70010;60.224;24.712;2024-02-26T10:41:07;6;6;
80643;PMS5003;70010;60.224;24.712;2024-02-26T10:43:32;9;9;
80643;PMS5003;70010;60.224;24.712;2024-02-26T10:45:58;16;10;
80643;PMS5003;70010;60.224;24.712;2024-02-26T10:48:24;14;9;
80643;PMS5003;70010;60.224;24.712;2024-02-26T10:50:50;9;9;
80643;PMS5003;70010;60.224;24.712;2024-02-26T10:53:16;15;12;
80643;PMS5003;70010;60.224;24.712;2024-02-26T10:55:41;10;9;
80643;PMS5003;70010;60.224;24.712;2024-02-26T10:58:07;11;10;
80643;PMS5003;70010;60.224;24.712;2024-02-26T11:00:33;10;10;
80643;PMS5003;70010;60.224;24.712;2024-02-26T11:02:58;9;8;
80643;PMS5003;70010;60.224;24.712;2024-02-26T11:05:24;9;9;
80643;PMS5003;70010;60.224;24.712;2024-02-26T11:07:49;16;9;
80643;PMS5003;70010;60.224;24.712;2024-02-26T11:10:15;10;8;
80643;PMS5003;70010;60.224;24.712;2024-02-26T11:12:40;9;8;
80643;PMS5003;70010;60.224;24.712;2024-02-26T11:15:06;8;7;
80643;PMS5003;70010;60.224;24.712;2024-02-26T11:17:31;9;9;
80643;PMS5003;70010;60.224;24.712;2024-02-26T11:19:57;13;9;
80643;PMS5003;70010;60.224;24.712;2024-02-26T11:22:22;18;13;
80643;PMS5003;70010;60.224;24.712;2024-02-26T11:24:47;12;9;
80643;PMS5003;70010;60.224;24.712;2024-02-26T11:27:12;10;8;
80643;PMS5003;70010;60.224;24.712;2024-02-26T11:29:38;23;13;
80643;PMS5003;70010;60.224;24.712;2024-02-26T11:32:03;10;9;
80643;PMS5003;70010;60.224;24.712;2024-02-26T11:34:28;11;11;
80643;PMS5003;70010;60.224;24.712;2024-02-26T11:36:54;16;12;
80643;PMS5003;70010;60.224;24.712;2024-02-26T11:39:19;19;10;
80643;PMS5003;70010;60.224;24.712;2024-02-26T11:41:44;12;10;
80643;PMS5003;70010;60.224;24.712;2024-02-26T11:44:10;17;10;
80643;PMS5003;70010;60.224;24.712;2024-02-26T11:46:38;12;10;
80643;PMS5003;70010;60.224;24.712;2024-02-26T11:49:02;24;11;
80643;PMS5003;70010;60.224;24.712;2024-02-26T11:51:27;10;8;
80643;PMS5003;70010;60.224;24.712;2024-02-26T11:53:53;14;9;
80643;PMS5003;70010;60.224;24.712;2024-02-26T11:56:22;16;12;
80643;PMS5003;70010;60.224;24.712;2024-02-26T11:58:43;11;9;
80643;PMS5003;70010;60.224;24.712;2024-02-26T12:03:34;13;11;
80643;PMS5003;70010;60.224;24.712;2024-02-26T12:06:00;14;12;
80643;PMS5003;70010;60.224;24.712;2024-02-26T12:08:26;11;8;
80643;PMS5003;70010;60.224;24.712;2024-02-26T12:10:51;9;8;
80643;PMS5003;70010;60.224;24.712;2024-02-26T12:13:17;11;9;
80643;PMS5003;70010;60.224;24.712;2024-02-26T12:15:42;8;8;
80643;PMS5003;70010;60.224;24.712;2024-02-26T12:18:07;9;9;
80643;PMS5003;70010;60.224;24.712;2024-02-26T12:20:33;9;8;
80643;PMS5003;70010;60.224;24.712;2024-02-26T12:22:59;6;6;
80643;PMS5003;70010;60.224;24.712;2024-02-26T12:25:26;9;9;
80643;PMS5003;70010;60.224;24.712;2024-02-26T12:27:50;12;10;
80643;PMS5003;70010;60.224;24.712;2024-02-26T12:30:15;8;7;
80643;PMS5003;70010;60.224;24.712;2024-02-26T12:32:41;8;8;
80643;PMS5003;70010;60.224;24.712;2024-02-26T12:35:06;8;8;
80643;PMS5003;70010;60.224;24.712;2024-02-26T12:37:31;12;11;
80643;PMS5003;70010;60.224;24.712;2024-02-26T12:39:57;7;7;
80643;PMS5003;70010;60.224;24.712;2024-02-26T12:42:22;8;8;
80643;PMS5003;70010;60.224;24.712;2024-02-26T12:44:49;9;9;
80643;PMS5003;70010;60.224;24.712;2024-02-26T12:47:13;9;9;
80643;PMS5003;70010;60.224;24.712;2024-02-26T12:49:38;8;7;
80643;PMS5003;70010;60.224;24.712;2024-02-26T12:52:04;11;9;
80643;PMS5003;70010;60.224;24.712;2024-02-26T12:54:29;9;7;
80643;PMS5003;70010;60.224;24.712;2024-02-26T12:56:54;14;10;
80643;PMS5003;70010;60.224;24.712;2024-02-26T12:59:19;12;8;
80643;PMS5003;70010;60.224;24.712;2024-02-26T13:01:45;8;8;
80643;PMS5003;70010;60.224;24.712;2024-02-26T13:04:10;10;9;
80643;PMS5003;70010;60.224;24.712;2024-02-26T13:06:35;9;8;
80643;PMS5003;70010;60.224;24.712;2024-02-26T13:09:00;7;7;
80643;PMS5003;70010;60.224;24.712;2024-02-26T13:11:26;9;7;
80643;PMS5003;70010;60.224;24.712;2024-02-26T13:13:51;9;7;
80643;PMS5003;70010;60.224;24.712;2024-02-26T13:16:16;9;6;
80643;PMS5003;70010;60.224;24.712;2024-02-26T13:18:42;7;7;
80643;PMS5003;70010;60.224;24.712;2024-02-26T13:21:08;10;10;
80643;PMS5003;70010;60.224;24.712;2024-02-26T13:23:33;10;6;
80643;PMS5003;70010;60.224;24.712;2024-02-26T13:25:59;9;7;
80643;PMS5003;70010;60.224;24.712;2024-02-26T13:28:25;17;10;
80643;PMS5003;70010;60.224;24.712;2024-02-26T13:30:50;10;10;
80643;PMS5003;70010;60.224;24.712;2024-02-26T13:33:16;9;9;
80643;PMS5003;70010;60.224;24.712;2024-02-26T13:35:41;10;10;
80643;PMS5003;70010;60.224;24.712;2024-02-26T13:38:06;14;14;
80643;PMS5003;70010;60.224;24.712;2024-02-26T13:40:32;12;10;
80643;PMS5003;70010;60.224;24.712;2024-02-26T13:42:57;13;9;
80643;PMS5003;70010;60.224;24.712;2024-02-26T13:45:22;10;10;
80643;PMS5003;70010;60.224;24.712;2024-02-26T13:47:48;11;9;
80643;PMS5003;70010;60.224;24.712;2024-02-26T13:50:13;7;5;
80643;PMS5003;70010;60.224;24.712;2024-02-26T13:52:38;6;6;
80643;PMS5003;70010;60.224;24.712;2024-02-26T13:55:05;6;6;
80643;PMS5003;70010;60.224;24.712;2024-02-26T13:57:29;9;7;
80643;PMS5003;70010;60.224;24.712;2024-02-26T13:59:55;6;6;
80643;PMS5003;70010;60.224;24.712;2024-02-26T14:02:20;8;8;
80643;PMS5003;70010;60.224;24.712;2024-02-26T14:04:45;5;5;
80643;PMS5003;70010;60.224;24.712;2024-02-26T14:07:11;7;6;
80643;PMS5003;70010;60.224;24.712;2024-02-26T14:09:36;10;7;
80643;PMS5003;70010;60.224;24.712;2024-02-26T14:12:01;9;7;
80643;PMS5003;70010;60.224;24.712;2024-02-26T14:14:27;9;8;
80643;PMS5003;70010;60.224;24.712;2024-02-26T14:16:52;5;5;
80643;PMS5003;70010;60.224;24.712;2024-02-26T14:19:17;8;7;
80643;PMS5003;70010;60.224;24.712;2024-02-26T14:21:42;8;6;
80643;PMS5003;70010;60.224;24.712;2024-02-26T14:24:08;15;7;
80643;PMS5003;70010;60.224;24.712;2024-02-26T14:26:34;6;5;
80643;PMS5003;70010;60.224;24.712;2024-02-26T14:28:59;6;6;
80643;PMS5003;70010;60.224;24.712;2024-02-26T14:31:24;5;5;
80643;PMS5003;70010;60.224;24.712;2024-02-26T14:33:50;8;7;
80643;PMS5003;70010;60.224;24.712;2024-02-26T14:36:15;9;8;
80643;PMS5003;70010;60.224;24.712;2024-02-26T14:38:40;8;7;
80643;PMS5003;70010;60.224;24.712;2024-02-26T14:41:06;8;7;
80643;PMS5003;70010;60.224;24.712;2024-02-26T14:43:31;10;8;
80643;PMS5003;70010;60.224;24.712;2024-02-26T14:45:57;7;6;
80643;PMS5003;70010;60.224;24.712;2024-02-26T14:48:23;6;6;
80643;PMS5003;70010;60.224;24.712;2024-02-26T14:50:48;7;7;
80643;PMS5003;70010;60.224;24.712;2024-02-26T14:53:13;5;5;
80643;PMS5003;70010;60.224;24.712;2024-02-26T14:55:38;4;4;
80643;PMS5003;70010;60.224;24.712;2024-02-26T14:58:04;3;3;
80643;PMS5003;70010;60.224;24.712;2024-02-26T15:00:29;5;5;
80643;PMS5003;70010;60.224;24.712;2024-02-26T15:02:54;5;5;
80643;PMS5003;70010;60.224;24.712;2024-02-26T15:05:20;6;5;
80643;PMS5003;70010;60.224;24.712;2024-02-26T15:07:45;3;3;
80643;PMS5003;70010;60.224;24.712;2024-02-26T15:10:11;4;4;
80643;PMS5003;70010;60.224;24.712;2024-02-26T15:12:36;9;6;
80643;PMS5003;70010;60.224;24.712;2024-02-26T15:15:01;6;6;
80643;PMS5003;70010;60.224;24.712;2024-02-26T15:17:27;5;5;
80643;PMS5003;70010;60.224;24.712;2024-02-26T15:19:52;6;5;
80643;PMS5003;70010;60.224;24.712;2024-02-26T15:22:17;6;6;
80643;PMS5003;70010;60.224;24.712;2024-02-26T15:24:43;6;6;
80643;PMS5003;70010;60.224;24.712;2024-02-26T15:27:08;4;4;
80643;PMS5003;70010;60.224;24.712;2024-02-26T15:29:33;6;5;
80643;PMS5003;70010;60.224;24.712;2024-02-26T15:31:59;5;4;
80643;PMS5003;70010;60.224;24.712;2024-02-26T15:34:24;6;6;
80643;PMS5003;70010;60.224;24.712;2024-02-26T15:36:50;7;6;
80643;PMS5003;70010;60.224;24.712;2024-02-26T15:39:15;6;5;
80643;PMS5003;70010;60.224;24.712;2024-02-26T15:41:41;5;5;
80643;PMS5003;70010;60.224;24.712;2024-02-26T15:44:06;6;5;
80643;PMS5003;70010;60.224;24.712;2024-02-26T15:46:31;3;2;
80643;PMS5003;70010;60.224;24.712;2024-02-26T15:48:56;4;4;
80643;PMS5003;70010;60.224;24.712;2024-02-26T15:51:22;4;4;
80643;PMS5003;70010;60.224;24.712;2024-02-26T15:53:47;11;6;
80643;PMS5003;70010;60.224;24.712;2024-02-26T15:56:13;7;5;
80643;PMS5003;70010;60.224;24.712;2024-02-26T15:58:39;6;6;
80643;PMS5003;70010;60.224;24.712;2024-02-26T16:01:04;8;6;
80643;PMS5003;70010;60.224;24.712;2024-02-26T16:03:29;6;6;